sensor_id;sensor_type;location;lat;lon;timestamp;temperature;humidity
46754;DHT22;32500;50.620;3.400;2023-05-29T00:02:22;18.00;76.00
46754;DHT22;32500;50.620;3.400;2023-05-29T00:04:48;18.00;75.90
46754;DHT22;32500;50.620;3.400;2023-05-29T00:07:14;17.90;75.90
46754;DHT22;32500;50.620;3.400;2023-05-29T00:09:39;17.90;75.40
46754;DHT22;32500;50.620;3.400;2023-05-29T00:12:05;17.80;75.70
46754;DHT22;32500;50.620;3.400;2023-05-29T00:14:31;17.80;76.30
46754;DHT22;32500;50.620;3.400;2023-05-29T00:16:57;17.80;76.30
46754;DHT22;32500;50.620;3.400;2023-05-29T00:19:22;17.80;76.30
46754;DHT22;32500;50.620;3.400;2023-05-29T00:21:50;17.70;76.20
46754;DHT22;32500;50.620;3.400;2023-05-29T00:24:16;17.80;76.80
46754;DHT22;32500;50.620;3.400;2023-05-29T00:26:42;17.70;76.80
46754;DHT22;32500;50.620;3.400;2023-05-29T00:29:08;17.70;76.10
46754;DHT22;32500;50.620;3.400;2023-05-29T00:31:34;17.70;77.10
46754;DHT22;32500;50.620;3.400;2023-05-29T00:34:01;17.70;77.20
46754;DHT22;32500;50.620;3.400;2023-05-29T00:36:27;17.70;77.10
46754;DHT22;32500;50.620;3.400;2023-05-29T00:38:54;17.70;76.80
46754;DHT22;32500;50.620;3.400;2023-05-29T00:41:19;17.60;75.70
46754;DHT22;32500;50.620;3.400;2023-05-29T00:43:45;17.60;76.30
46754;DHT22;32500;50.620;3.400;2023-05-29T00:46:13;17.60;77.60
46754;DHT22;32500;50.620;3.400;2023-05-29T00:48:40;17.60;77.60
46754;DHT22;32500;50.620;3.400;2023-05-29T00:51:07;17.60;77.40
46754;DHT22;32500;50.620;3.400;2023-05-29T00:53:34;17.60;77.80
46754;DHT22;32500;50.620;3.400;2023-05-29T00:56:00;17.50;77.70
46754;DHT22;32500;50.620;3.400;2023-05-29T00:58:26;17.50;77.60
46754;DHT22;32500;50.620;3.400;2023-05-29T01:00:52;17.50;77.80
46754;DHT22;32500;50.620;3.400;2023-05-29T01:03:20;17.50;77.70
46754;DHT22;32500;50.620;3.400;2023-05-29T01:05:48;17.50;78.20
46754;DHT22;32500;50.620;3.400;2023-05-29T01:08:14;17.40;78.50
46754;DHT22;32500;50.620;3.400;2023-05-29T01:10:40;17.40;78.40
46754;DHT22;32500;50.620;3.400;2023-05-29T01:13:22;17.40;78.10
46754;DHT22;32500;50.620;3.400;2023-05-29T01:18:54;17.40;78.70
46754;DHT22;32500;50.620;3.400;2023-05-29T01:24:20;17.30;78.20
46754;DHT22;32500;50.620;3.400;2023-05-29T01:27:00;17.30;78.60
46754;DHT22;32500;50.620;3.400;2023-05-29T01:29:29;17.30;78.20
46754;DHT22;32500;50.620;3.400;2023-05-29T01:31:59;17.30;79.00
46754;DHT22;32500;50.620;3.400;2023-05-29T01:34:27;17.20;78.10
46754;DHT22;32500;50.620;3.400;2023-05-29T01:36:53;17.10;79.10
46754;DHT22;32500;50.620;3.400;2023-05-29T01:39:19;17.10;79.40
46754;DHT22;32500;50.620;3.400;2023-05-29T01:41:47;17.10;79.30
46754;DHT22;32500;50.620;3.400;2023-05-29T01:44:13;17.10;79.70
46754;DHT22;32500;50.620;3.400;2023-05-29T01:46:41;17.10;80.00
46754;DHT22;32500;50.620;3.400;2023-05-29T01:49:09;17.10;79.30
46754;DHT22;32500;50.620;3.400;2023-05-29T01:51:35;17.10;79.90
46754;DHT22;32500;50.620;3.400;2023-05-29T01:54:01;17.00;79.30
46754;DHT22;32500;50.620;3.400;2023-05-29T01:56:28;17.00;79.70
46754;DHT22;32500;50.620;3.400;2023-05-29T01:58:54;17.00;79.60
46754;DHT22;32500;50.620;3.400;2023-05-29T02:01:24;17.00;79.60
46754;DHT22;32500;50.620;3.400;2023-05-29T02:03:50;16.90;79.50
46754;DHT22;32500;50.620;3.400;2023-05-29T02:06:19;17.00;80.60
46754;DHT22;32500;50.620;3.400;2023-05-29T02:08:45;16.90;80.50
46754;DHT22;32500;50.620;3.400;2023-05-29T02:11:11;16.90;80.40
46754;DHT22;32500;50.620;3.400;2023-05-29T02:13:37;16.90;79.80
46754;DHT22;32500;50.620;3.400;2023-05-29T02:16:02;16.90;80.40
46754;DHT22;32500;50.620;3.400;2023-05-29T02:18:28;16.90;80.80
46754;DHT22;32500;50.620;3.400;2023-05-29T02:20:54;16.90;80.70
46754;DHT22;32500;50.620;3.400;2023-05-29T02:23:19;16.80;81.00
46754;DHT22;32500;50.620;3.400;2023-05-29T02:25:46;16.80;80.60
46754;DHT22;32500;50.620;3.400;2023-05-29T02:28:11;16.70;80.90
46754;DHT22;32500;50.620;3.400;2023-05-29T02:30:37;16.80;80.60
46754;DHT22;32500;50.620;3.400;2023-05-29T02:33:03;16.80;80.60
46754;DHT22;32500;50.620;3.400;2023-05-29T02:35:29;16.80;81.30
46754;DHT22;32500;50.620;3.400;2023-05-29T02:37:55;16.80;80.60
46754;DHT22;32500;50.620;3.400;2023-05-29T02:40:20;16.70;80.80
46754;DHT22;32500;50.620;3.400;2023-05-29T02:42:47;16.70;80.90
46754;DHT22;32500;50.620;3.400;2023-05-29T02:45:13;16.70;81.20
46754;DHT22;32500;50.620;3.400;2023-05-29T02:47:39;16.70;80.60
46754;DHT22;32500;50.620;3.400;2023-05-29T02:50:05;16.70;80.70
46754;DHT22;32500;50.620;3.400;2023-05-29T02:52:34;16.60;81.20
46754;DHT22;32500;50.620;3.400;2023-05-29T02:55:00;16.60;81.20
46754;DHT22;32500;50.620;3.400;2023-05-29T02:57:26;16.60;81.10
46754;DHT22;32500;50.620;3.400;2023-05-29T02:59:51;16.60;81.00
46754;DHT22;32500;50.620;3.400;2023-05-29T03:02:18;16.60;81.10
46754;DHT22;32500;50.620;3.400;2023-05-29T03:04:44;16.60;80.80
46754;DHT22;32500;50.620;3.400;2023-05-29T03:07:10;16.50;81.30
46754;DHT22;32500;50.620;3.400;2023-05-29T03:09:36;16.50;81.60
46754;DHT22;32500;50.620;3.400;2023-05-29T03:12:01;16.50;80.80
46754;DHT22;32500;50.620;3.400;2023-05-29T03:14:27;16.40;81.60
46754;DHT22;32500;50.620;3.400;2023-05-29T03:16:53;16.40;81.10
46754;DHT22;32500;50.620;3.400;2023-05-29T03:19:19;16.40;82.20
46754;DHT22;32500;50.620;3.400;2023-05-29T03:21:45;16.40;81.90
46754;DHT22;32500;50.620;3.400;2023-05-29T03:24:11;16.40;80.90
46754;DHT22;32500;50.620;3.400;2023-05-29T03:26:39;16.30;82.60
46754;DHT22;32500;50.620;3.400;2023-05-29T03:29:05;16.30;82.70
46754;DHT22;32500;50.620;3.400;2023-05-29T03:31:31;16.30;81.70
46754;DHT22;32500;50.620;3.400;2023-05-29T03:33:57;16.30;82.80
46754;DHT22;32500;50.620;3.400;2023-05-29T03:36:23;16.30;82.10
46754;DHT22;32500;50.620;3.400;2023-05-29T03:38:48;16.30;82.30
46754;DHT22;32500;50.620;3.400;2023-05-29T03:41:14;16.20;82.70
46754;DHT22;32500;50.620;3.400;2023-05-29T03:43:40;16.30;82.50
46754;DHT22;32500;50.620;3.400;2023-05-29T03:46:05;16.30;82.60
46754;DHT22;32500;50.620;3.400;2023-05-29T03:48:31;16.20;82.40
46754;DHT22;32500;50.620;3.400;2023-05-29T03:50:56;16.20;82.10
46754;DHT22;32500;50.620;3.400;2023-05-29T03:53:22;16.10;82.70
46754;DHT22;32500;50.620;3.400;2023-05-29T03:55:48;16.10;82.00
46754;DHT22;32500;50.620;3.400;2023-05-29T03:58:13;16.10;82.50
46754;DHT22;32500;50.620;3.400;2023-05-29T04:00:39;16.10;82.60
46754;DHT22;32500;50.620;3.400;2023-05-29T04:03:05;16.10;82.50
46754;DHT22;32500;50.620;3.400;2023-05-29T04:05:31;16.00;81.90
46754;DHT22;32500;50.620;3.400;2023-05-29T04:07:57;16.00;81.40
46754;DHT22;32500;50.620;3.400;2023-05-29T04:10:23;16.00;82.80
46754;DHT22;32500;50.620;3.400;2023-05-29T04:12:51;16.10;83.40
46754;DHT22;32500;50.620;3.400;2023-05-29T04:15:17;16.00;81.70
46754;DHT22;32500;50.620;3.400;2023-05-29T04:17:42;16.00;81.70
46754;DHT22;32500;50.620;3.400;2023-05-29T04:20:08;16.00;82.80
46754;DHT22;32500;50.620;3.400;2023-05-29T04:22:37;16.00;81.30
46754;DHT22;32500;50.620;3.400;2023-05-29T04:25:04;16.00;82.70
46754;DHT22;32500;50.620;3.400;2023-05-29T04:27:31;16.00;82.70
46754;DHT22;32500;50.620;3.400;2023-05-29T04:29:58;16.00;81.60
46754;DHT22;32500;50.620;3.400;2023-05-29T04:32:24;16.00;81.20
46754;DHT22;32500;50.620;3.400;2023-05-29T04:34:50;16.00;82.30
46754;DHT22;32500;50.620;3.400;2023-05-29T04:37:16;16.10;82.50
46754;DHT22;32500;50.620;3.400;2023-05-29T04:39:42;16.00;82.10
46754;DHT22;32500;50.620;3.400;2023-05-29T04:42:08;16.00;81.80
46754;DHT22;32500;50.620;3.400;2023-05-29T04:44:34;16.10;82.60
46754;DHT22;32500;50.620;3.400;2023-05-29T04:47:00;16.10;82.30
46754;DHT22;32500;50.620;3.400;2023-05-29T04:49:29;16.10;81.20
46754;DHT22;32500;50.620;3.400;2023-05-29T04:51:54;16.00;82.20
46754;DHT22;32500;50.620;3.400;2023-05-29T04:54:22;16.10;82.40
46754;DHT22;32500;50.620;3.400;2023-05-29T04:56:48;16.10;81.90
46754;DHT22;32500;50.620;3.400;2023-05-29T04:59:14;16.20;81.80
46754;DHT22;32500;50.620;3.400;2023-05-29T05:01:39;16.20;81.00
46754;DHT22;32500;50.620;3.400;2023-05-29T05:04:08;16.20;81.30
46754;DHT22;32500;50.620;3.400;2023-05-29T05:06:34;16.20;80.20
46754;DHT22;32500;50.620;3.400;2023-05-29T05:09:00;16.10;80.80
46754;DHT22;32500;50.620;3.400;2023-05-29T05:11:26;16.10;80.00
46754;DHT22;32500;50.620;3.400;2023-05-29T05:13:52;16.20;81.50
46754;DHT22;32500;50.620;3.400;2023-05-29T05:16:17;16.20;81.10
46754;DHT22;32500;50.620;3.400;2023-05-29T05:18:44;16.20;81.10
46754;DHT22;32500;50.620;3.400;2023-05-29T05:21:10;16.30;81.00
46754;DHT22;32500;50.620;3.400;2023-05-29T05:23:36;16.20;80.40
46754;DHT22;32500;50.620;3.400;2023-05-29T05:26:01;16.30;80.60
46754;DHT22;32500;50.620;3.400;2023-05-29T05:28:27;16.30;79.60
46754;DHT22;32500;50.620;3.400;2023-05-29T05:30:53;16.40;79.80
46754;DHT22;32500;50.620;3.400;2023-05-29T05:33:18;16.40;79.70
46754;DHT22;32500;50.620;3.400;2023-05-29T05:35:44;16.30;80.10
46754;DHT22;32500;50.620;3.400;2023-05-29T05:38:10;16.40;79.90
46754;DHT22;32500;50.620;3.400;2023-05-29T05:40:35;16.40;78.80
46754;DHT22;32500;50.620;3.400;2023-05-29T05:43:01;16.30;79.50
46754;DHT22;32500;50.620;3.400;2023-05-29T05:45:27;16.40;79.70
46754;DHT22;32500;50.620;3.400;2023-05-29T05:47:52;16.40;79.60
46754;DHT22;32500;50.620;3.400;2023-05-29T05:50:18;16.50;79.70
46754;DHT22;32500;50.620;3.400;2023-05-29T05:52:44;16.50;79.70
46754;DHT22;32500;50.620;3.400;2023-05-29T05:55:10;16.50;79.50
46754;DHT22;32500;50.620;3.400;2023-05-29T05:57:36;16.50;78.70
46754;DHT22;32500;50.620;3.400;2023-05-29T06:00:05;16.50;80.10
46754;DHT22;32500;50.620;3.400;2023-05-29T06:02:38;16.60;79.30
46754;DHT22;32500;50.620;3.400;2023-05-29T06:05:07;16.60;78.90
46754;DHT22;32500;50.620;3.400;2023-05-29T06:07:32;16.60;78.90
46754;DHT22;32500;50.620;3.400;2023-05-29T06:09:58;16.60;78.40
46754;DHT22;32500;50.620;3.400;2023-05-29T06:12:24;16.60;78.60
46754;DHT22;32500;50.620;3.400;2023-05-29T06:14:50;16.70;78.00
46754;DHT22;32500;50.620;3.400;2023-05-29T06:17:16;16.60;77.70
46754;DHT22;32500;50.620;3.400;2023-05-29T06:19:41;16.60;77.70
46754;DHT22;32500;50.620;3.400;2023-05-29T06:22:07;16.60;77.90
46754;DHT22;32500;50.620;3.400;2023-05-29T06:24:33;16.60;77.70
46754;DHT22;32500;50.620;3.400;2023-05-29T06:26:58;16.60;77.90
46754;DHT22;32500;50.620;3.400;2023-05-29T06:29:24;16.70;77.80
46754;DHT22;32500;50.620;3.400;2023-05-29T06:31:49;16.50;72.60
46754;DHT22;32500;50.620;3.400;2023-05-29T06:34:15;16.60;67.40
46754;DHT22;32500;50.620;3.400;2023-05-29T06:36:41;16.20;65.60
46754;DHT22;32500;50.620;3.400;2023-05-29T06:39:07;16.40;67.50
46754;DHT22;32500;50.620;3.400;2023-05-29T06:41:33;16.30;64.30
46754;DHT22;32500;50.620;3.400;2023-05-29T06:43:58;16.30;65.70
46754;DHT22;32500;50.620;3.400;2023-05-29T06:46:24;16.30;63.40
46754;DHT22;32500;50.620;3.400;2023-05-29T06:48:50;16.30;64.70
46754;DHT22;32500;50.620;3.400;2023-05-29T06:51:17;16.30;65.00
46754;DHT22;32500;50.620;3.400;2023-05-29T06:53:42;16.00;64.30
46754;DHT22;32500;50.620;3.400;2023-05-29T06:56:08;16.10;64.20
46754;DHT22;32500;50.620;3.400;2023-05-29T06:58:34;16.20;64.90
46754;DHT22;32500;50.620;3.400;2023-05-29T07:01:00;16.30;63.80
46754;DHT22;32500;50.620;3.400;2023-05-29T07:03:26;16.40;63.10
46754;DHT22;32500;50.620;3.400;2023-05-29T07:05:52;16.30;64.30
46754;DHT22;32500;50.620;3.400;2023-05-29T07:08:18;16.30;64.10
46754;DHT22;32500;50.620;3.400;2023-05-29T07:10:44;16.10;66.70
46754;DHT22;32500;50.620;3.400;2023-05-29T07:13:13;16.10;67.10
46754;DHT22;32500;50.620;3.400;2023-05-29T07:15:38;16.10;65.50
46754;DHT22;32500;50.620;3.400;2023-05-29T07:18:04;16.00;64.70
46754;DHT22;32500;50.620;3.400;2023-05-29T07:20:30;16.00;66.30
46754;DHT22;32500;50.620;3.400;2023-05-29T07:22:55;16.00;66.90
46754;DHT22;32500;50.620;3.400;2023-05-29T07:25:21;16.00;67.80
46754;DHT22;32500;50.620;3.400;2023-05-29T07:27:47;16.10;67.70
46754;DHT22;32500;50.620;3.400;2023-05-29T07:30:12;16.20;65.70
46754;DHT22;32500;50.620;3.400;2023-05-29T07:32:38;16.00;66.60
46754;DHT22;32500;50.620;3.400;2023-05-29T07:35:04;16.10;67.00
46754;DHT22;32500;50.620;3.400;2023-05-29T07:37:30;16.30;63.90
46754;DHT22;32500;50.620;3.400;2023-05-29T07:39:57;16.10;62.80
46754;DHT22;32500;50.620;3.400;2023-05-29T07:42:22;16.30;65.20
46754;DHT22;32500;50.620;3.400;2023-05-29T07:44:48;16.60;64.00
46754;DHT22;32500;50.620;3.400;2023-05-29T07:47:14;16.40;63.80
46754;DHT22;32500;50.620;3.400;2023-05-29T07:49:40;16.50;62.50
46754;DHT22;32500;50.620;3.400;2023-05-29T07:52:06;16.50;62.50
46754;DHT22;32500;50.620;3.400;2023-05-29T07:54:32;16.50;62.10
46754;DHT22;32500;50.620;3.400;2023-05-29T07:57:01;16.60;62.50
46754;DHT22;32500;50.620;3.400;2023-05-29T07:59:35;16.50;63.90
46754;DHT22;32500;50.620;3.400;2023-05-29T08:02:01;16.70;62.00
46754;DHT22;32500;50.620;3.400;2023-05-29T08:04:28;16.50;62.40
46754;DHT22;32500;50.620;3.400;2023-05-29T08:06:54;16.80;62.70
46754;DHT22;32500;50.620;3.400;2023-05-29T08:09:20;16.70;61.20
46754;DHT22;32500;50.620;3.400;2023-05-29T08:11:46;16.90;61.90
46754;DHT22;32500;50.620;3.400;2023-05-29T08:14:14;16.80;61.10
46754;DHT22;32500;50.620;3.400;2023-05-29T08:16:40;16.60;60.20
46754;DHT22;32500;50.620;3.400;2023-05-29T08:19:06;16.70;61.60
46754;DHT22;32500;50.620;3.400;2023-05-29T08:21:32;16.70;62.20
46754;DHT22;32500;50.620;3.400;2023-05-29T08:23:58;16.70;60.10
46754;DHT22;32500;50.620;3.400;2023-05-29T08:26:24;17.00;61.50
46754;DHT22;32500;50.620;3.400;2023-05-29T08:28:50;17.00;62.10
46754;DHT22;32500;50.620;3.400;2023-05-29T08:31:15;17.00;60.10
46754;DHT22;32500;50.620;3.400;2023-05-29T08:33:41;17.10;60.50
46754;DHT22;32500;50.620;3.400;2023-05-29T08:36:07;17.00;60.20
46754;DHT22;32500;50.620;3.400;2023-05-29T08:38:34;17.00;60.00
46754;DHT22;32500;50.620;3.400;2023-05-29T08:41:00;17.00;58.80
46754;DHT22;32500;50.620;3.400;2023-05-29T08:43:30;17.00;59.90
46754;DHT22;32500;50.620;3.400;2023-05-29T08:45:59;17.00;59.50
46754;DHT22;32500;50.620;3.400;2023-05-29T08:48:27;17.10;60.50
46754;DHT22;32500;50.620;3.400;2023-05-29T08:50:55;17.10;60.20
46754;DHT22;32500;50.620;3.400;2023-05-29T08:53:21;17.20;61.00
46754;DHT22;32500;50.620;3.400;2023-05-29T08:55:48;17.30;60.30
46754;DHT22;32500;50.620;3.400;2023-05-29T08:58:17;17.20;60.40
46754;DHT22;32500;50.620;3.400;2023-05-29T09:00:47;17.30;61.80
46754;DHT22;32500;50.620;3.400;2023-05-29T09:03:13;17.40;61.60
46754;DHT22;32500;50.620;3.400;2023-05-29T09:05:39;17.40;60.00
46754;DHT22;32500;50.620;3.400;2023-05-29T09:08:06;17.40;61.90
46754;DHT22;32500;50.620;3.400;2023-05-29T09:10:32;17.40;60.40
46754;DHT22;32500;50.620;3.400;2023-05-29T09:12:59;17.40;60.30
46754;DHT22;32500;50.620;3.400;2023-05-29T09:15:24;17.40;60.10
46754;DHT22;32500;50.620;3.400;2023-05-29T09:17:55;17.50;61.80
46754;DHT22;32500;50.620;3.400;2023-05-29T09:20:22;17.50;59.90
46754;DHT22;32500;50.620;3.400;2023-05-29T09:23:02;17.50;61.40
46754;DHT22;32500;50.620;3.400;2023-05-29T09:25:30;17.60;60.30
46754;DHT22;32500;50.620;3.400;2023-05-29T09:28:04;17.60;59.00
46754;DHT22;32500;50.620;3.400;2023-05-29T09:30:39;17.60;58.80
46754;DHT22;32500;50.620;3.400;2023-05-29T09:33:09;17.60;59.80
46754;DHT22;32500;50.620;3.400;2023-05-29T09:35:42;17.60;59.20
46754;DHT22;32500;50.620;3.400;2023-05-29T09:38:09;17.60;59.00
46754;DHT22;32500;50.620;3.400;2023-05-29T09:40:39;17.70;59.70
46754;DHT22;32500;50.620;3.400;2023-05-29T09:43:16;17.70;59.70
46754;DHT22;32500;50.620;3.400;2023-05-29T09:45:47;17.80;59.30
46754;DHT22;32500;50.620;3.400;2023-05-29T09:48:18;17.80;59.40
46754;DHT22;32500;50.620;3.400;2023-05-29T09:50:44;17.80;59.50
46754;DHT22;32500;50.620;3.400;2023-05-29T09:53:23;17.90;59.50
46754;DHT22;32500;50.620;3.400;2023-05-29T09:55:53;17.90;58.20
46754;DHT22;32500;50.620;3.400;2023-05-29T09:58:25;17.90;60.10
46754;DHT22;32500;50.620;3.400;2023-05-29T10:00:51;17.90;59.70
46754;DHT22;32500;50.620;3.400;2023-05-29T10:03:17;18.10;60.60
46754;DHT22;32500;50.620;3.400;2023-05-29T10:05:49;18.20;59.00
46754;DHT22;32500;50.620;3.400;2023-05-29T10:08:17;18.30;60.00
46754;DHT22;32500;50.620;3.400;2023-05-29T10:10:45;18.40;59.70
46754;DHT22;32500;50.620;3.400;2023-05-29T10:13:13;18.40;58.90
46754;DHT22;32500;50.620;3.400;2023-05-29T10:15:44;18.50;58.40
46754;DHT22;32500;50.620;3.400;2023-05-29T10:18:16;18.50;58.70
46754;DHT22;32500;50.620;3.400;2023-05-29T10:20:48;18.60;59.80
46754;DHT22;32500;50.620;3.400;2023-05-29T10:23:16;18.70;58.00
46754;DHT22;32500;50.620;3.400;2023-05-29T10:25:45;18.70;59.20
46754;DHT22;32500;50.620;3.400;2023-05-29T10:28:13;18.90;59.80
46754;DHT22;32500;50.620;3.400;2023-05-29T10:30:41;18.80;58.90
46754;DHT22;32500;50.620;3.400;2023-05-29T10:36:22;18.80;57.20
46754;DHT22;32500;50.620;3.400;2023-05-29T10:38:50;18.70;57.40
46754;DHT22;32500;50.620;3.400;2023-05-29T10:44:00;18.90;57.60
46754;DHT22;32500;50.620;3.400;2023-05-29T10:49:20;19.00;57.20
46754;DHT22;32500;50.620;3.400;2023-05-29T10:51:47;19.00;58.90
46754;DHT22;32500;50.620;3.400;2023-05-29T10:54:14;19.10;57.80
46754;DHT22;32500;50.620;3.400;2023-05-29T10:56:40;19.00;57.40
46754;DHT22;32500;50.620;3.400;2023-05-29T10:59:08;19.10;57.60
46754;DHT22;32500;50.620;3.400;2023-05-29T11:01:34;19.30;58.20
46754;DHT22;32500;50.620;3.400;2023-05-29T11:06:41;19.20;57.40
46754;DHT22;32500;50.620;3.400;2023-05-29T11:20:31;19.30;57.30
46754;DHT22;32500;50.620;3.400;2023-05-29T11:25:29;19.40;58.20
46754;DHT22;32500;50.620;3.400;2023-05-29T11:27:58;19.40;58.00
46754;DHT22;32500;50.620;3.400;2023-05-29T11:30:24;19.40;58.10
46754;DHT22;32500;50.620;3.400;2023-05-29T11:32:49;19.50;58.50
46754;DHT22;32500;50.620;3.400;2023-05-29T11:35:20;19.50;57.70
46754;DHT22;32500;50.620;3.400;2023-05-29T11:37:47;19.60;57.40
46754;DHT22;32500;50.620;3.400;2023-05-29T11:40:15;19.70;57.40
46754;DHT22;32500;50.620;3.400;2023-05-29T11:42:46;19.70;56.60
46754;DHT22;32500;50.620;3.400;2023-05-29T11:45:18;19.70;56.70
46754;DHT22;32500;50.620;3.400;2023-05-29T11:47:55;19.80;57.50
46754;DHT22;32500;50.620;3.400;2023-05-29T11:50:23;19.80;56.40
46754;DHT22;32500;50.620;3.400;2023-05-29T11:52:49;19.70;55.70
46754;DHT22;32500;50.620;3.400;2023-05-29T11:55:17;19.60;55.80
46754;DHT22;32500;50.620;3.400;2023-05-29T11:57:44;19.80;57.10
46754;DHT22;32500;50.620;3.400;2023-05-29T12:00:16;19.80;57.70
46754;DHT22;32500;50.620;3.400;2023-05-29T12:02:42;19.80;56.60
46754;DHT22;32500;50.620;3.400;2023-05-29T12:05:09;19.90;57.10
46754;DHT22;32500;50.620;3.400;2023-05-29T12:07:36;19.90;55.40
46754;DHT22;32500;50.620;3.400;2023-05-29T12:10:10;20.10;57.00
46754;DHT22;32500;50.620;3.400;2023-05-29T12:12:36;20.10;56.80
46754;DHT22;32500;50.620;3.400;2023-05-29T12:15:02;20.20;56.70
46754;DHT22;32500;50.620;3.400;2023-05-29T12:17:31;20.00;55.20
46754;DHT22;32500;50.620;3.400;2023-05-29T12:19:57;20.00;55.80
46754;DHT22;32500;50.620;3.400;2023-05-29T12:22:37;20.00;55.30
46754;DHT22;32500;50.620;3.400;2023-05-29T12:25:06;20.00;56.00
46754;DHT22;32500;50.620;3.400;2023-05-29T12:27:33;20.00;54.80
46754;DHT22;32500;50.620;3.400;2023-05-29T12:30:03;20.00;53.90
46754;DHT22;32500;50.620;3.400;2023-05-29T12:32:38;20.00;54.00
46754;DHT22;32500;50.620;3.400;2023-05-29T12:35:18;20.00;54.20
46754;DHT22;32500;50.620;3.400;2023-05-29T12:37:46;20.00;54.90
46754;DHT22;32500;50.620;3.400;2023-05-29T12:40:20;20.00;54.20
46754;DHT22;32500;50.620;3.400;2023-05-29T12:42:53;20.10;54.60
46754;DHT22;32500;50.620;3.400;2023-05-29T12:45:20;20.10;55.00
46754;DHT22;32500;50.620;3.400;2023-05-29T12:47:57;20.00;53.70
46754;DHT22;32500;50.620;3.400;2023-05-29T12:50:31;20.10;53.80
46754;DHT22;32500;50.620;3.400;2023-05-29T12:53:01;20.10;53.40
46754;DHT22;32500;50.620;3.400;2023-05-29T12:55:28;20.10;54.90
46754;DHT22;32500;50.620;3.400;2023-05-29T12:57:55;20.10;53.50
46754;DHT22;32500;50.620;3.400;2023-05-29T13:00:22;20.10;53.20
46754;DHT22;32500;50.620;3.400;2023-05-29T13:02:49;20.10;52.90
46754;DHT22;32500;50.620;3.400;2023-05-29T13:05:15;20.10;53.20
46754;DHT22;32500;50.620;3.400;2023-05-29T13:07:42;20.10;53.60
46754;DHT22;32500;50.620;3.400;2023-05-29T13:10:08;20.20;53.60
46754;DHT22;32500;50.620;3.400;2023-05-29T13:12:35;20.20;53.30
46754;DHT22;32500;50.620;3.400;2023-05-29T13:15:01;20.30;53.60
46754;DHT22;32500;50.620;3.400;2023-05-29T13:17:26;20.20;53.60
46754;DHT22;32500;50.620;3.400;2023-05-29T13:19:52;20.30;53.50
46754;DHT22;32500;50.620;3.400;2023-05-29T13:22:17;20.30;54.00
46754;DHT22;32500;50.620;3.400;2023-05-29T13:24:43;20.30;53.40
46754;DHT22;32500;50.620;3.400;2023-05-29T13:27:09;20.30;53.80
46754;DHT22;32500;50.620;3.400;2023-05-29T13:29:34;20.40;53.20
46754;DHT22;32500;50.620;3.400;2023-05-29T13:32:00;20.40;53.00
46754;DHT22;32500;50.620;3.400;2023-05-29T13:34:26;20.40;53.10
46754;DHT22;32500;50.620;3.400;2023-05-29T13:36:57;20.40;52.60
46754;DHT22;32500;50.620;3.400;2023-05-29T13:39:23;20.40;52.50
46754;DHT22;32500;50.620;3.400;2023-05-29T13:41:50;20.50;51.90
46754;DHT22;32500;50.620;3.400;2023-05-29T13:44:16;20.40;53.00
46754;DHT22;32500;50.620;3.400;2023-05-29T13:46:41;20.50;52.60
46754;DHT22;32500;50.620;3.400;2023-05-29T13:49:07;20.50;52.20
46754;DHT22;32500;50.620;3.400;2023-05-29T13:51:33;20.50;53.40
46754;DHT22;32500;50.620;3.400;2023-05-29T13:54:01;20.60;53.60
46754;DHT22;32500;50.620;3.400;2023-05-29T13:56:27;20.60;53.50
46754;DHT22;32500;50.620;3.400;2023-05-29T13:58:54;20.60;53.70
46754;DHT22;32500;50.620;3.400;2023-05-29T14:01:20;20.60;52.10
46754;DHT22;32500;50.620;3.400;2023-05-29T14:03:46;20.60;53.20
46754;DHT22;32500;50.620;3.400;2023-05-29T14:06:12;20.60;52.90
46754;DHT22;32500;50.620;3.400;2023-05-29T14:08:38;20.60;53.20
46754;DHT22;32500;50.620;3.400;2023-05-29T14:11:03;20.60;52.50
46754;DHT22;32500;50.620;3.400;2023-05-29T14:13:29;20.60;52.60
46754;DHT22;32500;50.620;3.400;2023-05-29T14:15:55;20.70;52.70
46754;DHT22;32500;50.620;3.400;2023-05-29T14:18:22;20.70;52.70
46754;DHT22;32500;50.620;3.400;2023-05-29T14:20:48;20.70;52.80
46754;DHT22;32500;50.620;3.400;2023-05-29T14:23:16;20.70;52.00
46754;DHT22;32500;50.620;3.400;2023-05-29T14:25:42;20.70;53.60
46754;DHT22;32500;50.620;3.400;2023-05-29T14:28:08;20.80;52.90
46754;DHT22;32500;50.620;3.400;2023-05-29T14:30:33;20.80;52.10
46754;DHT22;32500;50.620;3.400;2023-05-29T14:32:59;20.80;52.60
46754;DHT22;32500;50.620;3.400;2023-05-29T14:35:25;20.80;53.00
46754;DHT22;32500;50.620;3.400;2023-05-29T14:37:51;20.90;52.50
46754;DHT22;32500;50.620;3.400;2023-05-29T14:40:17;20.90;51.60
46754;DHT22;32500;50.620;3.400;2023-05-29T14:42:43;20.90;52.70
46754;DHT22;32500;50.620;3.400;2023-05-29T14:45:08;20.90;52.30
46754;DHT22;32500;50.620;3.400;2023-05-29T14:47:35;20.90;52.30
46754;DHT22;32500;50.620;3.400;2023-05-29T14:50:01;20.90;51.70
46754;DHT22;32500;50.620;3.400;2023-05-29T14:52:26;20.90;52.60
46754;DHT22;32500;50.620;3.400;2023-05-29T14:54:52;21.00;52.40
46754;DHT22;32500;50.620;3.400;2023-05-29T14:57:18;21.00;50.90
46754;DHT22;32500;50.620;3.400;2023-05-29T14:59:44;21.10;51.30
46754;DHT22;32500;50.620;3.400;2023-05-29T15:02:09;21.10;51.60
46754;DHT22;32500;50.620;3.400;2023-05-29T15:04:35;21.10;51.10
46754;DHT22;32500;50.620;3.400;2023-05-29T15:07:01;21.20;50.80
46754;DHT22;32500;50.620;3.400;2023-05-29T15:09:27;21.10;50.20
46754;DHT22;32500;50.620;3.400;2023-05-29T15:11:53;21.20;50.60
46754;DHT22;32500;50.620;3.400;2023-05-29T15:14:19;21.10;49.80
46754;DHT22;32500;50.620;3.400;2023-05-29T15:16:45;21.10;50.80
46754;DHT22;32500;50.620;3.400;2023-05-29T15:19:11;21.10;50.30
46754;DHT22;32500;50.620;3.400;2023-05-29T15:21:37;21.10;50.50
46754;DHT22;32500;50.620;3.400;2023-05-29T15:24:03;21.10;51.70
46754;DHT22;32500;50.620;3.400;2023-05-29T15:26:29;21.10;50.40
46754;DHT22;32500;50.620;3.400;2023-05-29T15:28:54;21.10;49.90
46754;DHT22;32500;50.620;3.400;2023-05-29T15:31:20;21.10;49.40
46754;DHT22;32500;50.620;3.400;2023-05-29T15:33:48;21.10;51.70
46754;DHT22;32500;50.620;3.400;2023-05-29T15:36:14;21.20;49.50
46754;DHT22;32500;50.620;3.400;2023-05-29T15:38:41;21.20;49.10
46754;DHT22;32500;50.620;3.400;2023-05-29T15:41:07;21.20;50.40
46754;DHT22;32500;50.620;3.400;2023-05-29T15:43:33;21.20;49.00
46754;DHT22;32500;50.620;3.400;2023-05-29T15:45:59;21.20;49.50
46754;DHT22;32500;50.620;3.400;2023-05-29T15:48:25;21.20;49.00
46754;DHT22;32500;50.620;3.400;2023-05-29T15:50:50;21.20;48.70
46754;DHT22;32500;50.620;3.400;2023-05-29T15:53:16;21.20;49.20
46754;DHT22;32500;50.620;3.400;2023-05-29T15:55:42;21.20;49.80
46754;DHT22;32500;50.620;3.400;2023-05-29T15:58:08;21.20;49.20
46754;DHT22;32500;50.620;3.400;2023-05-29T16:00:34;21.20;50.10